This is the latest recevied weather packets stored in our database for station/object AI4Y. If no packets are shown the sender has not sent any weather packets the latest 10 day(s).
| Time | Temp. | Humidity | Pressure | Rain* | Wind** | Luminosity | Snow |
|---|---|---|---|---|---|---|---|
| 1777499437 | 18.33° C | 96% | 1008.1 hPa | 0 mm | - | 70 W/m² | - |
| 1777497617 | 18.89° C | 94% | 1008.4 hPa | 0 mm | - | 95 W/m² | - |
| 1777497018 | 18.89° C | 95% | 1008.2 hPa | 0 mm | - | 188 W/m² | - |
| 1777493418 | 18.33° C | 96% | 1008.9 hPa | 0 mm | - | 176 W/m² | - |
| 1777492818 | 18.33° C | 96% | 1009 hPa | 0 mm | - | 205 W/m² | - |
| 1777492216 | 18.33° C | 95% | 1009.5 hPa | 0 mm | - | 127 W/m² | - |
| 1777486237 | 17.22° C | 98% | 1011.1 hPa | 0.25 mm | - | 81 W/m² | - |
| 1777480219 | 16.67° C | 97% | 1012.3 hPa | 0.25 mm | - | 282 W/m² | - |
| 1777479616 | 16.67° C | 97% | 1012.7 hPa | 0.25 mm | - | 208 W/m² | - |
| 1777477836 | 16.11° C | 98% | 1013 hPa | 0.25 mm | - | 169 W/m² | - |
| 1777473617 | 16.67° C | 93% | 1013.3 hPa | 0 mm | - | 142 W/m² | - |
| 1777472418 | 16.11° C | 93% | 1013.4 hPa | 0 mm | - | 126 W/m² | - |
| 1777470038 | 15.56° C | 96% | 1013.7 hPa | 0 mm | - | 67 W/m² | - |
| 1777468818 | 15.56° C | 96% | 1013.6 hPa | 0 mm | - | 63 W/m² | - |
| 1777467019 | 15° C | 99% | 1013.8 hPa | 0 mm | - | 83 W/m² | - |
| 1777465236 | 14.44° C | 99% | 1013.9 hPa | 0 mm | - | 50 W/m² | - |
| 1777464016 | 15° C | 99% | 1014.2 hPa | 0 mm | - | 30 W/m² | - |
| 1777459817 | 14.44° C | 99% | 1014.7 hPa | 0 mm | - | 5 W/m² | - |
| 1777458017 | 14.44° C | 99% | 1014.7 hPa | 0 mm | - | 0 W/m² | - |
| 1777457415 | 14.44° C | 99% | 1014.7 hPa | 0 mm | - | 0 W/m² | - |
| 1777456216 | 14.44° C | 100% | 1013.4 hPa | 0 mm | - | 0 W/m² | - |
| 1777455016 | 14.44° C | 99% | 1013.8 hPa | 0 mm | - | 0 W/m² | - |
| 1777452657 | 14.44° C | 100% | 1014.4 hPa | 0 mm | - | 0 W/m² | - |
| 1777450818 | 14.44° C | 100% | 1014.9 hPa | 0 mm | - | 0 W/m² | - |
| 1777447818 | 14.44° C | 99% | 1014.7 hPa | 0 mm | - | 0 W/m² | - |
* Rain latest hour (hover to see other rain measurements)
** Current wind speed in m/s (hover to see current wind gust speed)